Terminal Aerodrome Forecast
Issued by NWS Duluth, MN

Home | Current Version | Previous Version | Text Only | Print | Product List | Glossary On
Versions: 1 2 3 4 5 6 7 8 9 10 11 12 13 14 15 16 17 18 19 20 21 22 23 24 25 26 27 28 29 30 31 32 33
041
FTUS43 KDLH 101958 AAA
TAFINL
TAF AMD
KINL 101958Z 1020/1118 21004KT 3SM -SHSN BR OVC020
     FM102200 19004KT P6SM SCT035 SCT140
     FM110900 08003KT P6SM VCSH SCT027 OVC050
     FM111500 08005KT P6SM VCSH SCT018 OVC026=

USA.gov is the U.S. government's official web portal to all federal, state and local government web resources and services.